createdAt,value
2018-09-01T08:12:37.023Z,5.00
2018-09-01T08:20:02.513Z,4.20
2018-09-01T17:18:55.571Z,12.75
2018-09-01T17:21:26.123Z,11.40
2018-09-01T17:23:56.665Z,12.00
2018-09-01T17:26:26.344Z,11.90
2018-09-01T17:28:55.657Z,12.70
2018-09-01T17:31:25.537Z,12.55
2018-09-01T17:33:55.030Z,13.30
2018-09-01T17:36:25.583Z,14.15
2018-09-01T17:38:55.617Z,15.00
2018-09-01T17:41:27.175Z,15.10
2018-09-01T17:43:56.880Z,15.90
2018-09-01T17:46:26.220Z,16.10
2018-09-01T17:51:48.958Z,17.97
2018-09-01T17:54:19.682Z,16.60
2018-09-01T17:56:49.590Z,16.20
2018-09-01T17:59:20.772Z,17.57
2018-09-01T18:01:52.075Z,17.25
2018-09-01T18:06:51.211Z,16.60
2018-09-01T18:09:22.901Z,17.70
2018-09-01T18:11:53.550Z,17.50
2018-09-01T18:14:23.508Z,20.60
2018-09-01T18:21:53.112Z,18.90
2018-09-01T18:24:22.772Z,18.10
2018-09-01T18:26:53.267Z,18.60
2018-09-01T18:29:22.943Z,19.10
2018-09-01T18:34:22.433Z,22.30
2018-09-01T18:47:12.845Z,18.75
2018-09-01T18:49:42.500Z,18.10
2018-09-01T18:52:12.215Z,17.93
2018-09-01T18:54:42.472Z,18.50
2018-09-01T19:02:10.421Z,19.10
2018-09-01T19:09:38.466Z,18.60
2018-09-01T19:14:38.059Z,18.10
2018-09-01T19:22:07.087Z,17.30
2018-09-01T19:32:07.484Z,14.55
2018-09-01T19:34:37.322Z,15.00
2018-09-01T19:44:34.379Z,13.65
2018-09-01T19:47:04.297Z,12.20
2018-09-01T19:52:03.090Z,12.20
2018-09-01T19:54:33.092Z,10.20
2018-09-01T19:59:31.488Z,10.30
2018-09-01T20:17:08.964Z,11.00
2018-09-01T20:37:02.537Z,14.70
2018-09-01T20:44:29.198Z,13.30
2018-09-01T21:21:43.851Z,13.10
2018-09-01T21:26:42.218Z,14.10
2018-09-01T21:34:12.074Z,14.40
2018-09-01T21:41:43.889Z,14.80
2018-09-01T21:44:14.704Z,17.90
2018-09-01T22:21:27.490Z,18.80
2018-09-01T22:23:57.186Z,20.75
2018-09-01T22:31:24.422Z,20.00
2018-09-01T22:36:23.232Z,23.20
2018-09-01T22:38:54.806Z,21.90
2018-09-01T22:46:21.719Z,20.30
2018-09-01T22:56:19.084Z,19.90
2018-09-01T23:16:12.562Z,19.30
2018-09-01T23:36:06.197Z,16.10
2018-09-01T23:41:04.692Z,15.65
2018-09-01T23:46:04.004Z,14.10
2018-09-01T23:56:06.097Z,11.90
2018-09-01T23:58:35.662Z,11.70
